Cleavesville, Missouri
Current Conditions -  °F | °C
As of 5:53 PM on Wednesday 26 Nov 2014 (Local Time) from KVIH Reporting Station
Unknown Precip Unknown Precip  
Wind Chill: 30°   Ceiling: 1700
Heat Index: 37°   Visibility: 10mi
Dew Point: 33°   Wind: 9mph
Humidity: 86%   Direction: 290°WNW
Pressure: 30.03"   Gusts: NA
Location:  38.3239°N, 91.6268°W
Report Text: KVIH 262353Z AUTO 29008KT 10SM UP BKN017 OVC021 03/01 A3003 RMK AO2 UPB09 SLP177 P0000 60002 T00280006 10039 20006 53026
Loading
Personal Weather Stations






























Interactive Weather Map New forecast layout! Learn more

10-Day Weather Forecast

Advertisements
Track Severe Weather on mobile